West Saint Paul, Minnesota
Current Conditions -  °F | °C
As of 12:53 PM on Monday 20 Oct 2014 (Local Time) from KSTP Reporting Station
Clear Clear  
Wind Chill: 61°   Ceiling: Unl
Heat Index: 61°   Visibility: 10mi
Dew Point: 44°   Wind: 15mph
Humidity: 54%   Direction: 310°NW
Pressure: 29.99"   Gusts: NA
Location:  44.8976°N, 93.103°W
Report Text: KSTP 201753Z 31013KT 10SM CLR 16/07 A2999 RMK AO2 SLP153 T01610067 10161 20061 58008
Loading
Personal Weather Stations






























Interactive Weather Map
Tropical Storm Tracking
New forecast layout! Learn more

10-Day Weather Forecast

Advertisements
Track Severe Weather on mobile